CYFBCYXP

Guest
Details From CYFB - Iqaluit
To CYXP - Pangnirtung
Flight Number -
Tags generated
Created
Modified
Stats Distance 860 nm / 1,594 km
Max Altitude 34,000 ft / 10,363 m
Waypoints 6
Social Downloads 3
Likes 0
Share VATSIM

Download

Looking for another format? Having issues loading an existing format? Contact us
Advertisement - Login to hide

Notes

Basic altitude profile: - Ascent Rate: 2500ft/min - Ascent Speed: 250kts - Cruise Altitude: 35000ft - Cruise Speed: 420kts - Descent Rate: 1500ft/min - Descent Speed: 250kts

Route

CYFB YFB J540 YZS NCAL10 N6630 CYXP

ID Type Via Altitude Latitude Longitude Leg Dist Tot Dist Heading (true) Name
O CYFB APT - 0 ft / 0 m 63.75657˚ -68.55606˚ - 0 nm - Iqaluit
YFB VOR - 800 ft / 244 m 63.74167˚ -68.47333˚ 2 nm 2 nm 112° / 112° FROBAY VOR
YTE NDB J540 (AWY-HI) 34,000 ft / 10,363 m 64.22861˚ -76.52806˚ 214 nm 216 nm 281° / 274° CAPE DORSET NDB
YZS NDB J540 (AWY-HI) 34,000 ft / 10,363 m 64.14850˚ -83.30475˚ 177 nm 393 nm 271° / 265° CORAL HARBOUR NDB
N6630 FIX NCAL10 (AWY-HI) 27,000 ft / 8,230 m 66.50000˚ -70.00000˚ 361 nm 754 nm 61° / 73° -
O CYXP APT - 0 ft / 0 m 66.14494˚ -65.71313˚ 105 nm 860 nm 100° / 104° Pangnirtung

Altitude Profile

Advertisement - Login to hide

Weather


0- 5 10 15 20 25 30 35+ Temperature / ° C

Clouds and Precipitation
Forecast for 2017-12-12 18:00 UTC. Updated 32 minutes ago

Ground ~20,000 ft ~40,000 ft Winds

CYFB

Details ICAO CYFB (YFB)
Name Iqaluit
Region Canada
Timezone America/Iqaluit (UTC-5.0)
Stats Elevation 110 ft / 34 m (AMSL)
Location 63.756565° -68.556058°
Runways 1
Magnetic Variation 27.545° W

METAR

CYFB 121300Z 33006KT 15SM -SN FEW020 OVC053 M15/M18 A2951 RMK SC2SC6 SLP998

Decode

TAF

TAF CYFB 121138Z 1212/1312 31008KT P6SM OVC050 TEMPO 1212/1218 VRB03KT P6SM -SN BKN020 OVC050 FM121800 VRB03KT P6SM BKN050 RMK NXT FCST BY 121800Z

Decode

Departure Runways

ID Width Length Bearing (true) Bearing (mag) Surface Threshold Offset Overrun Length
17 200 ft / 61 m 8,605 ft / 2,623 m 135.58° 163.13° Asphalt 0 ft / 0 m 210 ft / 64 m
35 200 ft / 61 m 8,605 ft / 2,623 m 315.62° 343.17° Asphalt 0 ft / 0 m 243 ft / 74 m

CYXP

Details ICAO CYXP (YXP)
Name Pangnirtung
Region Canada
Timezone Unknown (UTC+0.0)
Stats Elevation 73 ft / 22 m (AMSL)
Location 66.144940° -65.713130°
Runways 1
Magnetic Variation 30.537° W

METAR

CYXP 121300Z 12004KT 090V160 15SM -SN OVC012 M18/M19 A2936 RMK ST8 CIG ESTD SLP948

Decode

TAF

TAF CYXP 121339Z 1214/1223 VRB03KT P6SM -SN OVC012 TEMPO 1214/1223 OVC020 BECMG 1221/1223 24010KT RMK NXT FCST BY 121900Z

Decode

Destination Runways

ID Width Length Bearing (true) Bearing (mag) Surface Threshold Offset Overrun Length
06T 98 ft / 30 m 2,919 ft / 890 m 60.95° 91.49° Gravel 0 ft / 0 m 0 ft / 0 m
24T 98 ft / 30 m 2,919 ft / 890 m 240.97° 271.51° Gravel 0 ft / 0 m 0 ft / 0 m

Popular Alternatives